Cairns International Airport
YBCS : now visible

Airfield :











YOU CAN JOIN US ON...

 
LOGIN :

Register | Disclaimer

   EN    FR    IT 

 









Legend :    VFR   Marginal VFR   IFR   Intensive IFR   Very Intensive IFR
Visi :
Ceiling :
>= 8 km
>= 3000ft
5 to 8 km
1000 to 3000 ft
1500m to 5 km
500 to 1000 ft
800 to 1500m
200 to 500 ft
< 800m
< 200 ft
Symbols :   Thunderstorms  Fog  Heavy snow  Heavy precipitations  Wind > 20 kt






- Airport Elevation : 10 ft
- IATA code : CNS


YBCS - Cairns International

CURRENT METAR :
  • 171930Z AUTO 00000KT 9999 // NCD 25/24 Q1007

EXPIRED METARs :
  • 171900Z AUTO 00000KT 9999 // SCT025 26/24 Q1006
  • 171830Z AUTO 00000KT 9999 // SCT021 SCT027 BKN031 26/24 Q1006
  • 171810Z AUTO 00000KT 9999 // SCT021 SCT031 26/25 Q1006
  • 171800Z AUTO 00000KT 9999 // SCT021 BKN039 26/24 Q1006
  • 171730Z AUTO 00000KT 9999 // BKN021 BKN027 OVC033 26/25 Q1006
  • 171711Z AUTO 00000KT 9999 // BKN021 26/25 Q1006 RF00/0/000/0
  • 171700Z AUTO 00000KT 9999 // SCT023 26/25 Q1006

TAF TAF YBCS
Valid from the 17 at 18:00 until the 18 at 18:00 UTC


171706Z 1718/1818 28003KT 9999 SCT020
FM180000 03005KT 9999 -SHRA SCT030
FM180900 09005KT 9999 NSW SCT025
FM181200 27003KT 9999 SCT020
TEMPO 1718/1721 9999 BKN015
YBBB FIR / Oceania



MET'MAP, your aeronautical weather chart ! - Copyright ORBIFLY December 2007 - Disclaimer

ORBIFLY MET'MAP TEAM :

Programming & Development : Alexandra Zaïnal
Concept & original design : Baudouin d'Aumeries
Assistance for programming : Marc-Olivier Méhu
Technical & hardware support : Manuel Goepfert

Contact : metmap@orbifly.com




SOURCES & CREDITS :

   NOAA       Earth
Advisory